Decoded Metar for KSTK (STERLING in CO, USA) (IATA:STK) | Meteo·Mobile Aviation Weather
aviador You're here:

KSTK Decoded Metar

STERLING in CO, USA
Report Time2019-01-22 00:50:00
UTC Time2019-01-22 00:42:31
Flight Rules ifr IFR
WindCalm
Visibility9999 m
Phenomena:N/A
Clouds:Overcast 007 Hf
Expected CloudBase > 400 ft AGL from Temp-Dew spread
Ceiling700 ft
Temp-1°C (ISA -8)
Dew Point-2°C (93% RH)
AAT-3.3°C
QNH1000 hPa
Density Alt3,602 ft
Elevation4,039 ft
Report Wrong Elevation
Raw Report
KSTK 220050Z AUTO 00000KT 10SM OVC007 M01/M02 A2954 RMK AO2=

Extra information for KSTK:More info

Metar Taf Metar & Taf Last 4 Metars F.Rules Stats Wind Profile Meteogram Temp Stats Airport Information Weather charts Add Link Nearby VenuesMetar ALERT Operation Metar Decoded Social comments

AIRNAV info for KSTK